Time,TemperatureF,DewpointF,PressureIn,WindDirection,WindDirectionDegrees,WindSpeedMPH,WindSpeedGustMPH,Humidity,HourlyPrecipIn,Conditions,Clouds,dailyrainin,SoftwareType,DateUTC
2013-10-19 00:00:00,49.8,48.7,30.00,North,10,0.0,0.0,96,0.00,CLR,,0.00,WeatherDisplay:10.37,2013-10-19 04:00:00,
2013-10-19 00:10:00,49.8,48.8,30.00,North,10,0.0,1.0,96,0.00,CLR,,0.00,WeatherDisplay:10.37,2013-10-19 04:10:00,
2013-10-19 00:20:00,49.9,48.8,29.99,North,10,0.0,0.0,96,0.00,CLR,,0.00,WeatherDisplay:10.37,2013-10-19 04:20:00,
2013-10-19 00:31:00,50.0,48.9,29.99,North,10,0.0,0.0,96,0.00,CLR,,0.00,WeatherDisplay:10.37,2013-10-19 04:31:00,
2013-10-19 00:40:00,50.2,49.1,30.00,North,10,0.0,0.0,96,0.00,CLR,,0.00,WeatherDisplay:10.37,2013-10-19 04:40:00,
2013-10-19 00:50:00,50.3,49.2,30.00,North,10,0.0,0.0,96,0.00,CLR,,0.00,WeatherDisplay:10.37,2013-10-19 04:50:00,
2013-10-19 01:00:00,50.5,49.4,30.00,North,10,0.0,0.0,96,0.00,CLR,,0.00,WeatherDisplay:10.37,2013-10-19 05:00:00,
2013-10-19 01:10:00,50.7,49.6,30.00,North,10,0.0,0.0,96,0.00,CLR,,0.00,WeatherDisplay:10.37,2013-10-19 05:10:00,
2013-10-19 01:20:00,50.9,49.8,29.99,North,10,0.0,0.0,96,0.00,CLR,,0.00,WeatherDisplay:10.37,2013-10-19 05:20:00,
2013-10-19 01:31:00,51.0,49.9,29.99,North,10,0.0,0.0,96,0.00,CLR,,0.00,WeatherDisplay:10.37,2013-10-19 05:31:00,
2013-10-19 01:40:00,51.1,50.0,29.98,North,10,0.0,0.0,96,0.00,CLR,,0.00,WeatherDisplay:10.37,2013-10-19 05:40:00,
2013-10-19 01:50:00,51.1,50.0,29.98,North,10,0.0,0.0,96,0.00,CLR,,0.00,WeatherDisplay:10.37,2013-10-19 05:50:00,
2013-10-19 02:00:00,51.2,50.1,29.98,North,10,0.0,0.0,96,0.00,CLR,,0.00,WeatherDisplay:10.37,2013-10-19 06:00:00,
2013-10-19 02:10:00,51.2,50.1,29.97,North,10,0.0,0.0,96,0.00,CLR,,0.00,WeatherDisplay:10.37,2013-10-19 06:10:00,
2013-10-19 02:20:00,51.2,50.1,29.98,North,10,0.0,0.0,96,0.00,CLR,,0.00,WeatherDisplay:10.37,2013-10-19 06:20:00,
2013-10-19 02:31:00,51.3,50.2,29.98,North,10,0.0,1.0,96,0.00,CLR,,0.00,WeatherDisplay:10.37,2013-10-19 06:31:00,
2013-10-19 02:40:00,51.3,50.2,29.98,North,10,0.0,0.0,96,0.00,CLR,,0.00,WeatherDisplay:10.37,2013-10-19 06:40:00,
2013-10-19 02:50:00,51.3,50.2,29.97,North,10,0.0,0.0,96,0.00,SCT,,0.00,WeatherDisplay:10.37,2013-10-19 06:50:00,
2013-10-19 03:00:00,51.3,50.2,29.97,North,10,0.0,0.0,96,0.00,SCT,,0.00,WeatherDisplay:10.37,2013-10-19 07:00:00,
2013-10-19 03:10:00,51.3,50.2,29.97,North,10,0.0,0.0,96,0.00,CLR,,0.00,WeatherDisplay:10.37,2013-10-19 07:10:00,
2013-10-19 03:20:00,51.2,50.1,29.97,North,10,0.0,0.0,96,0.00,CLR,,0.00,WeatherDisplay:10.37,2013-10-19 07:20:00,
2013-10-19 03:31:00,51.2,50.1,29.97,North,10,0.0,0.0,96,0.00,CLR,,0.00,WeatherDisplay:10.37,2013-10-19 07:31:00,
2013-10-19 03:40:00,51.2,50.1,29.96,North,10,0.0,0.0,96,0.00,CLR,,0.00,WeatherDisplay:10.37,2013-10-19 07:40:00,
2013-10-19 03:50:00,51.2,50.1,29.96,North,10,0.0,0.0,96,0.00,CLR,,0.00,WeatherDisplay:10.37,2013-10-19 07:50:00,
2013-10-19 04:01:00,51.2,50.4,29.96,North,10,0.0,0.0,97,0.00,CLR,,0.00,WeatherDisplay:10.37,2013-10-19 08:01:00,
2013-10-19 04:10:00,51.2,50.4,29.97,North,10,0.0,0.0,97,0.00,CLR,,0.00,WeatherDisplay:10.37,2013-10-19 08:10:00,
2013-10-19 04:20:00,51.2,50.4,29.96,North,10,0.0,0.0,97,0.00,CLR,,0.00,WeatherDisplay:10.37,2013-10-19 08:20:00,
2013-10-19 04:31:00,51.3,50.5,29.96,North,10,0.0,0.0,97,0.00,CLR,,0.00,WeatherDisplay:10.37,2013-10-19 08:31:00,
2013-10-19 04:40:00,51.4,50.6,29.95,North,10,0.0,0.0,97,0.00,SCT,,0.00,WeatherDisplay:10.37,2013-10-19 08:40:00,
2013-10-19 04:50:00,51.4,50.6,29.96,North,10,0.0,0.0,97,0.00,OVC,,0.00,WeatherDisplay:10.37,2013-10-19 08:50:00,
2013-10-19 05:01:00,51.5,50.7,29.95,North,10,0.0,0.0,97,0.00,OVC,,0.00,WeatherDisplay:10.37,2013-10-19 09:01:00,
2013-10-19 05:10:00,51.6,50.8,29.95,North,10,0.0,0.0,97,0.00,OVC,,0.00,WeatherDisplay:10.37,2013-10-19 09:10:00,
2013-10-19 05:20:00,51.6,50.8,29.95,North,10,0.0,0.0,97,0.00,OVC,,0.00,WeatherDisplay:10.37,2013-10-19 09:20:00,
2013-10-19 05:31:00,51.7,50.9,29.96,North,10,0.0,0.0,97,0.00,OVC,,0.00,WeatherDisplay:10.37,2013-10-19 09:31:00,
2013-10-19 05:40:00,51.8,51.0,29.96,North,10,0.0,0.0,97,0.00,BKN,,0.00,WeatherDisplay:10.37,2013-10-19 09:40:00,
2013-10-19 05:50:00,51.9,51.1,29.95,North,10,0.0,0.0,97,0.00,BKN,,0.00,WeatherDisplay:10.37,2013-10-19 09:50:00,
2013-10-19 06:00:00,52.0,51.1,29.95,North,10,0.0,1.0,97,0.00,BKN,,0.00,WeatherDisplay:10.37,2013-10-19 10:00:00,
2013-10-19 06:10:00,52.0,51.2,29.94,North,10,0.0,1.0,97,0.00,BKN,,0.00,WeatherDisplay:10.37,2013-10-19 10:10:00,
2013-10-19 06:20:00,52.0,51.2,29.95,North,10,0.0,0.0,97,0.00,BKN,,0.00,WeatherDisplay:10.37,2013-10-19 10:20:00,
2013-10-19 06:31:00,52.0,51.2,29.95,North,10,0.0,0.0,97,0.00,BKN,,0.00,WeatherDisplay:10.37,2013-10-19 10:31:00,
2013-10-19 06:40:00,51.9,51.1,29.95,North,10,0.0,0.0,97,0.00,BKN,,0.00,WeatherDisplay:10.37,2013-10-19 10:40:00,
2013-10-19 06:50:00,51.8,51.0,29.95,North,10,0.0,0.0,97,0.00,BKN,,0.00,WeatherDisplay:10.37,2013-10-19 10:50:00,
2013-10-19 07:01:00,51.8,51.0,29.95,North,10,0.0,0.0,97,0.00,BKN,,0.00,WeatherDisplay:10.37,2013-10-19 11:01:00,
2013-10-19 07:10:00,51.8,51.0,29.96,North,10,0.0,0.0,97,0.00,BKN,,0.00,WeatherDisplay:10.37,2013-10-19 11:10:00,
2013-10-19 07:20:00,51.9,51.1,29.95,North,10,0.0,0.0,97,0.00,BKN,,0.00,WeatherDisplay:10.37,2013-10-19 11:20:00,
2013-10-19 07:31:00,52.1,51.3,29.95,North,10,0.0,0.0,97,0.00,BKN,,0.00,WeatherDisplay:10.37,2013-10-19 11:31:00,
2013-10-19 07:40:00,52.1,51.3,29.94,North,10,0.0,0.0,97,0.00,BKN,,0.00,WeatherDisplay:10.37,2013-10-19 11:40:00,
2013-10-19 07:50:00,52.1,51.3,29.95,North,10,0.0,0.0,97,0.00,OVC,,0.00,WeatherDisplay:10.37,2013-10-19 11:50:00,
2013-10-19 08:00:00,52.2,51.4,29.96,North,10,0.0,0.0,97,0.00,OVC,,0.00,WeatherDisplay:10.37,2013-10-19 12:00:00,
2013-10-19 08:10:00,52.3,51.5,29.95,North,10,0.0,0.0,97,0.00,BKN,,0.00,WeatherDisplay:10.37,2013-10-19 12:10:00,
2013-10-19 08:20:00,52.3,51.5,29.96,North,10,0.0,0.0,97,0.00,BKN,,0.00,WeatherDisplay:10.37,2013-10-19 12:20:00,
2013-10-19 08:31:00,52.3,51.2,29.96,North,10,0.0,0.0,96,0.00,BKN,,0.00,WeatherDisplay:10.37,2013-10-19 12:31:00,
2013-10-19 08:40:00,52.3,51.2,29.94,North,10,0.0,0.0,96,0.00,SCT,,0.00,WeatherDisplay:10.37,2013-10-19 12:40:00,
2013-10-19 08:50:00,52.4,51.3,29.94,North,10,0.0,0.0,96,0.00,CLR,,0.00,WeatherDisplay:10.37,2013-10-19 12:50:00,
2013-10-19 09:01:00,52.6,51.5,29.95,NNW,338,1.0,3.0,96,0.00,CLR,,0.00,WeatherDisplay:10.37,2013-10-19 13:01:00,
2013-10-19 09:10:00,52.9,51.8,29.96,West,264,0.0,2.0,96,0.00,CLR,,0.00,WeatherDisplay:10.37,2013-10-19 13:10:00,
2013-10-19 09:20:00,53.3,51.9,29.97,West,264,0.0,3.0,95,0.00,CLR,,0.00,WeatherDisplay:10.37,2013-10-19 13:20:00,
2013-10-19 09:31:00,53.9,51.3,29.96,WSW,243,5.0,6.0,91,0.00,CLR,,0.00,WeatherDisplay:10.37,2013-10-19 13:31:00,
2013-10-19 09:40:00,54.5,51.3,29.98,WSW,248,1.0,5.0,89,0.00,CLR,,0.00,WeatherDisplay:10.37,2013-10-19 13:40:00,
2013-10-19 09:50:00,55.0,51.8,29.97,WSW,239,0.0,3.0,89,0.00,CLR,,0.00,WeatherDisplay:10.37,2013-10-19 13:50:00,
2013-10-19 10:01:00,55.4,51.9,29.99,WSW,239,1.0,3.0,88,0.00,CLR,,0.00,WeatherDisplay:10.37,2013-10-19 14:01:00,
2013-10-19 10:10:00,55.9,52.1,29.99,WSW,237,0.0,3.0,87,0.00,SCT,,0.00,WeatherDisplay:10.37,2013-10-19 14:10:00,
2013-10-19 10:20:00,56.4,52.6,29.98,WSW,237,0.0,3.0,87,0.00,SCT,,0.00,WeatherDisplay:10.37,2013-10-19 14:20:00,
2013-10-19 10:31:00,56.8,52.7,29.97,South,174,0.0,5.0,86,0.00,SCT,,0.00,WeatherDisplay:10.37,2013-10-19 14:31:00,
2013-10-19 10:40:00,56.9,53.1,29.96,South,173,0.0,2.0,87,0.00,SCT,,0.00,WeatherDisplay:10.37,2013-10-19 14:40:00,
2013-10-19 10:50:00,57.1,53.5,29.96,South,173,0.0,2.0,88,0.00,CLR,,0.00,WeatherDisplay:10.37,2013-10-19 14:50:00,
2013-10-19 11:01:00,57.1,53.0,29.97,South,173,0.0,4.0,86,0.00,CLR,,0.00,WeatherDisplay:10.37,2013-10-19 15:01:00,
2013-10-19 11:10:00,57.2,53.7,29.97,South,173,0.0,2.0,88,0.00,SCT,,0.00,WeatherDisplay:10.37,2013-10-19 15:10:00,
2013-10-19 11:20:00,57.5,53.9,29.98,South,173,0.0,1.0,88,0.00,SCT,,0.00,WeatherDisplay:10.37,2013-10-19 15:20:00,
2013-10-19 11:31:00,57.7,53.9,29.99,SSW,193,2.0,5.0,87,0.00,SCT,,0.00,WeatherDisplay:10.37,2013-10-19 15:31:00,
2013-10-19 11:40:00,58.0,53.8,30.00,SW,230,3.0,6.0,86,0.00,SCT,,0.00,WeatherDisplay:10.37,2013-10-19 15:40:00,
2013-10-19 11:50:00,58.6,53.5,29.99,WSW,248,3.0,5.0,83,0.00,SCT,,0.00,WeatherDisplay:10.37,2013-10-19 15:50:00,
2013-10-19 12:01:00,58.9,53.1,30.00,WSW,239,3.0,7.0,81,0.00,SCT,,0.00,WeatherDisplay:10.37,2013-10-19 16:01:00,
2013-10-19 12:10:00,59.1,53.3,29.99,SW,216,2.0,6.0,81,0.00,CLR,,0.00,WeatherDisplay:10.37,2013-10-19 16:10:00,
2013-10-19 12:20:00,59.1,53.3,29.98,SSW,212,0.0,6.0,81,0.00,CLR,,0.00,WeatherDisplay:10.37,2013-10-19 16:20:00,
2013-10-19 12:31:00,59.1,53.6,29.99,WSW,238,1.0,5.0,82,0.00,CLR,,0.00,WeatherDisplay:10.37,2013-10-19 16:31:00,
2013-10-19 12:40:00,59.3,53.8,29.99,WSW,248,1.0,6.0,82,0.00,CLR,,0.00,WeatherDisplay:10.37,2013-10-19 16:40:00,
2013-10-19 12:50:00,59.5,54.3,29.97,WSW,249,0.0,3.0,83,0.00,CLR,,0.00,WeatherDisplay:10.37,2013-10-19 16:50:00,
2013-10-19 13:01:00,59.9,54.1,29.96,WSW,249,1.0,3.0,81,0.00,CLR,,0.00,WeatherDisplay:10.37,2013-10-19 17:01:00,
2013-10-19 13:10:00,60.5,54.0,29.97,WSW,249,0.0,3.0,79,0.00,CLR,,0.00,WeatherDisplay:10.37,2013-10-19 17:10:00,
2013-10-19 13:20:00,61.4,54.8,29.97,SW,225,1.0,3.0,79,0.00,CLR,,0.00,WeatherDisplay:10.37,2013-10-19 17:20:00,
2013-10-19 13:31:00,62.6,55.3,29.97,WSW,241,2.0,7.0,77,0.00,CLR,,0.00,WeatherDisplay:10.37,2013-10-19 17:31:00,
2013-10-19 13:40:00,63.4,55.0,29.96,WSW,238,2.0,9.0,74,0.00,CLR,,0.00,WeatherDisplay:10.37,2013-10-19 17:40:00,
2013-10-19 13:50:00,63.9,55.4,29.96,SSW,195,2.0,7.0,74,0.00,CLR,,0.00,WeatherDisplay:10.37,2013-10-19 17:50:00,
2013-10-19 14:01:00,63.9,55.4,29.96,WSW,242,2.0,7.0,74,0.00,CLR,,0.00,WeatherDisplay:10.37,2013-10-19 18:01:00,
2013-10-19 14:10:00,64.0,55.5,29.95,SW,234,0.0,9.0,74,0.00,CLR,,0.00,WeatherDisplay:10.37,2013-10-19 18:10:00,
2013-10-19 14:20:00,64.4,54.8,29.94,SW,216,7.0,10.0,71,0.00,CLR,,0.00,WeatherDisplay:10.37,2013-10-19 18:20:00,
2013-10-19 14:31:00,64.9,55.3,29.94,SW,214,2.0,9.0,71,0.00,CLR,,0.00,WeatherDisplay:10.37,2013-10-19 18:31:00,
2013-10-19 14:40:00,65.1,55.1,29.94,WSW,239,3.0,10.0,70,0.00,CLR,,0.00,WeatherDisplay:10.37,2013-10-19 18:40:00,
2013-10-19 14:50:00,65.3,55.7,29.94,SSW,207,2.0,5.0,71,0.00,CLR,,0.00,WeatherDisplay:10.37,2013-10-19 18:50:00,
2013-10-19 15:00:00,65.6,55.9,29.93,SW,214,2.0,10.0,71,0.00,CLR,,0.00,WeatherDisplay:10.37,2013-10-19 19:00:00,
2013-10-19 15:11:00,66.5,55.2,29.93,SW,230,1.0,10.0,67,0.00,BKN,,0.00,WeatherDisplay:10.37,2013-10-19 19:11:00,
2013-10-19 15:20:00,67.5,55.3,29.93,WSW,252,2.0,6.0,65,0.00,BKN,,0.00,WeatherDisplay:10.37,2013-10-19 19:20:00,
2013-10-19 15:31:00,67.1,54.1,29.93,North,10,1.0,10.0,63,0.00,BKN,,0.00,WeatherDisplay:10.37,2013-10-19 19:31:00,
2013-10-19 15:40:00,66.8,53.4,29.92,SW,227,0.0,6.0,62,0.00,BKN,,0.00,WeatherDisplay:10.37,2013-10-19 19:40:00,
2013-10-19 15:50:00,66.6,54.1,29.92,SW,234,1.0,5.0,64,0.00,SCT,,0.00,WeatherDisplay:10.37,2013-10-19 19:50:00,
2013-10-19 16:00:00,66.5,54.4,29.92,East,91,0.0,6.0,65,0.00,SCT,,0.00,WeatherDisplay:10.37,2013-10-19 20:00:00,
2013-10-19 16:10:00,66.7,52.4,29.92,SW,218,3.0,7.0,60,0.00,SCT,,0.00,WeatherDisplay:10.37,2013-10-19 20:10:00,
2013-10-19 16:20:00,66.7,53.3,29.92,SW,220,0.0,7.0,62,0.00,SCT,,0.00,WeatherDisplay:10.37,2013-10-19 20:20:00,
2013-10-19 16:31:00,66.7,55.0,29.93,SSW,193,0.0,2.0,66,0.00,SCT,,0.00,WeatherDisplay:10.37,2013-10-19 20:31:00,
2013-10-19 16:40:00,66.6,54.9,29.92,SSW,193,0.0,1.0,66,0.00,SCT,,0.00,WeatherDisplay:10.37,2013-10-19 20:40:00,
2013-10-19 16:50:00,66.8,55.5,29.92,SSW,193,0.0,0.0,67,0.00,SCT,,0.00,WeatherDisplay:10.37,2013-10-19 20:50:00,
2013-10-19 17:01:00,66.9,54.7,29.93,South,188,0.0,4.0,65,0.00,SCT,,0.00,WeatherDisplay:10.37,2013-10-19 21:01:00,
2013-10-19 17:10:00,66.7,56.6,29.93,South,188,0.0,2.0,70,0.00,OVC,,0.00,WeatherDisplay:10.37,2013-10-19 21:10:00,
2013-10-19 17:20:00,66.3,56.2,29.93,SSW,192,0.0,4.0,70,0.00,OVC,,0.00,WeatherDisplay:10.37,2013-10-19 21:20:00,
2013-10-19 17:31:00,66.1,56.8,29.93,SSW,194,0.0,2.0,72,0.00,OVC,,0.00,WeatherDisplay:10.37,2013-10-19 21:31:00,
2013-10-19 17:40:00,65.5,58.1,29.93,SSW,194,0.0,0.0,77,0.00,BKN,,0.00,WeatherDisplay:10.37,2013-10-19 21:40:00,
2013-10-19 17:50:00,65.0,57.2,29.93,SSW,194,0.0,0.0,76,0.00,SCT,,0.00,WeatherDisplay:10.37,2013-10-19 21:50:00,
2013-10-19 18:01:00,64.4,58.1,29.94,SSW,194,0.0,1.0,80,0.00,SCT,,0.00,WeatherDisplay:10.37,2013-10-19 22:01:00,
2013-10-19 18:10:00,63.9,57.9,29.94,SSW,194,0.0,1.0,81,0.00,BKN,,0.00,WeatherDisplay:10.37,2013-10-19 22:10:00,
2013-10-19 18:20:00,63.5,58.6,29.94,SSW,194,0.0,1.0,84,0.00,BKN,,0.00,WeatherDisplay:10.37,2013-10-19 22:20:00,
2013-10-19 18:31:00,62.9,58.0,29.94,SSW,194,0.0,1.0,84,0.00,BKN,,0.00,WeatherDisplay:10.37,2013-10-19 22:31:00,
2013-10-19 18:40:00,62.1,57.2,29.95,SSW,194,0.0,0.0,84,0.00,BKN,,0.00,WeatherDisplay:10.37,2013-10-19 22:40:00,
2013-10-19 18:50:00,61.3,56.8,29.95,SSW,194,0.0,0.0,85,0.00,BKN,,0.00,WeatherDisplay:10.37,2013-10-19 22:50:00,
2013-10-19 19:01:00,60.4,55.8,29.95,SSW,194,0.0,1.0,85,0.00,BKN,,0.00,WeatherDisplay:10.37,2013-10-19 23:01:00,
2013-10-19 19:10:00,59.6,55.4,29.95,SSW,194,0.0,1.0,86,0.00,OVC,,0.00,WeatherDisplay:10.37,2013-10-19 23:10:00,
2013-10-19 19:20:00,58.9,55.1,29.96,SSW,194,0.0,2.0,87,0.00,OVC,,0.00,WeatherDisplay:10.37,2013-10-19 23:20:00,
2013-10-19 19:31:00,58.3,54.8,29.96,SSW,194,0.0,1.0,88,0.00,OVC,,0.00,WeatherDisplay:10.37,2013-10-19 23:31:00,
2013-10-19 19:40:00,58.0,54.4,29.96,SSW,194,0.0,1.0,88,0.00,BKN,,0.00,WeatherDisplay:10.37,2013-10-19 23:40:00,
2013-10-19 19:50:00,57.8,53.9,29.97,SSE,168,1.0,4.0,87,0.00,SCT,,0.00,WeatherDisplay:10.37,2013-10-19 23:50:00,
2013-10-19 20:01:00,58.1,53.7,29.97,NNE,27,1.0,6.0,85,0.00,SCT,,0.00,WeatherDisplay:10.37,2013-10-20 00:01:00,
2013-10-19 20:10:00,58.3,53.2,29.98,NE,40,0.0,2.0,83,0.00,CLR,,0.00,WeatherDisplay:10.37,2013-10-20 00:10:00,
2013-10-19 20:20:00,58.2,52.7,29.98,NE,53,0.0,3.0,82,0.00,CLR,,0.00,WeatherDisplay:10.37,2013-10-20 00:20:00,
2013-10-19 20:31:00,58.2,52.4,29.98,NE,42,1.0,4.0,81,0.00,CLR,,0.00,WeatherDisplay:10.37,2013-10-20 00:31:00,
2013-10-19 20:40:00,58.0,52.2,29.98,NE,45,0.0,5.0,81,0.00,CLR,,0.00,WeatherDisplay:10.37,2013-10-20 00:40:00,
2013-10-19 20:50:00,57.4,51.9,29.98,NNE,27,2.0,5.0,82,0.00,CLR,,0.00,WeatherDisplay:10.37,2013-10-20 00:50:00,
2013-10-19 21:01:00,57.2,51.4,29.99,NNE,22,0.0,6.0,81,0.00,CLR,,0.00,WeatherDisplay:10.37,2013-10-20 01:01:00,
2013-10-19 21:10:00,56.9,51.5,29.99,NNE,24,0.0,3.0,82,0.00,CLR,,0.00,WeatherDisplay:10.37,2013-10-20 01:10:00,
2013-10-19 21:20:00,56.5,51.4,30.00,North,9,0.0,6.0,83,0.00,CLR,,0.00,WeatherDisplay:10.37,2013-10-20 01:20:00,
2013-10-19 21:31:00,56.1,51.3,30.00,North,10,0.0,5.0,84,0.00,CLR,,0.00,WeatherDisplay:10.37,2013-10-20 01:31:00,
2013-10-19 21:40:00,55.6,51.2,30.00,NNE,15,0.0,1.0,85,0.00,CLR,,0.00,WeatherDisplay:10.37,2013-10-20 01:40:00,
2013-10-19 21:50:00,54.8,50.7,30.00,NNE,15,0.0,2.0,86,0.00,CLR,,0.00,WeatherDisplay:10.37,2013-10-20 01:50:00,
2013-10-19 22:01:00,54.3,50.5,30.01,NNE,15,0.0,2.0,87,0.00,CLR,,0.00,WeatherDisplay:10.37,2013-10-20 02:01:00,
2013-10-19 22:10:00,54.0,50.2,30.01,NNE,23,1.0,5.0,87,0.00,CLR,,0.00,WeatherDisplay:10.37,2013-10-20 02:10:00,
2013-10-19 22:20:00,53.8,50.0,30.01,NE,35,1.0,6.0,87,0.00,CLR,,0.00,WeatherDisplay:10.37,2013-10-20 02:20:00,
2013-10-19 22:31:00,53.3,49.5,30.02,NNE,23,0.0,3.0,87,0.00,CLR,,0.00,WeatherDisplay:10.37,2013-10-20 02:31:00,
2013-10-19 22:40:00,52.8,49.3,30.02,NNE,17,0.0,3.0,88,0.00,CLR,,0.00,WeatherDisplay:10.37,2013-10-20 02:40:00,
2013-10-19 22:50:00,52.5,49.0,30.02,NNE,20,0.0,2.0,88,0.00,CLR,,0.00,WeatherDisplay:10.37,2013-10-20 02:50:00,
2013-10-19 23:01:00,52.2,48.8,30.03,NNE,33,0.0,2.0,88,0.00,CLR,,0.00,WeatherDisplay:10.37,2013-10-20 03:01:00,
2013-10-19 23:10:00,51.5,48.1,30.03,NNE,33,0.0,3.0,88,0.00,CLR,,0.00,WeatherDisplay:10.37,2013-10-20 03:10:00,
2013-10-19 23:20:00,50.9,48.1,30.03,East,88,0.0,6.0,90,0.00,CLR,,0.00,WeatherDisplay:10.37,2013-10-20 03:20:00,
2013-10-19 23:31:00,50.6,47.8,30.03,NE,53,0.0,2.0,90,0.00,CLR,,0.00,WeatherDisplay:10.37,2013-10-20 03:31:00,
2013-10-19 23:40:00,50.4,47.9,30.03,NE,53,0.0,1.0,91,0.00,CLR,,0.00,WeatherDisplay:10.37,2013-10-20 03:40:00,
2013-10-19 23:50:00,50.4,47.9,30.04,NNE,29,1.0,5.0,91,0.00,CLR,,0.00,WeatherDisplay:10.37,2013-10-20 03:50:00,